sensor_id;sensor_type;location;lat;lon;timestamp;temperature;humidity
3232;DHT22;1628;48.884;9.210;2022-11-18T00:01:44;9.30;99.90
3232;DHT22;1628;48.884;9.210;2022-11-18T00:04:11;9.30;99.90
3232;DHT22;1628;48.884;9.210;2022-11-18T00:06:37;9.30;99.90
3232;DHT22;1628;48.884;9.210;2022-11-18T00:09:04;9.30;99.90
3232;DHT22;1628;48.884;9.210;2022-11-18T00:11:32;9.30;99.90
3232;DHT22;1628;48.884;9.210;2022-11-18T00:14:18;9.20;99.90
3232;DHT22;1628;48.884;9.210;2022-11-18T00:16:48;9.20;99.90
3232;DHT22;1628;48.884;9.210;2022-11-18T00:19:15;9.20;99.90
3232;DHT22;1628;48.884;9.210;2022-11-18T00:21:42;9.20;99.90
3232;DHT22;1628;48.884;9.210;2022-11-18T00:24:09;9.20;99.90
3232;DHT22;1628;48.884;9.210;2022-11-18T00:26:37;9.20;99.90
3232;DHT22;1628;48.884;9.210;2022-11-18T00:29:03;9.20;99.90
3232;DHT22;1628;48.884;9.210;2022-11-18T00:31:30;9.30;99.90
3232;DHT22;1628;48.884;9.210;2022-11-18T00:33:57;9.30;99.90
3232;DHT22;1628;48.884;9.210;2022-11-18T00:36:24;9.30;99.90
3232;DHT22;1628;48.884;9.210;2022-11-18T00:38:50;9.30;99.90
3232;DHT22;1628;48.884;9.210;2022-11-18T00:41:17;9.30;99.90
3232;DHT22;1628;48.884;9.210;2022-11-18T00:43:45;9.30;99.90
3232;DHT22;1628;48.884;9.210;2022-11-18T00:46:11;9.30;99.90
3232;DHT22;1628;48.884;9.210;2022-11-18T00:48:38;9.30;99.90
3232;DHT22;1628;48.884;9.210;2022-11-18T00:51:10;9.30;99.90
3232;DHT22;1628;48.884;9.210;2022-11-18T00:53:38;9.30;99.90
3232;DHT22;1628;48.884;9.210;2022-11-18T00:56:06;9.30;99.90
3232;DHT22;1628;48.884;9.210;2022-11-18T00:58:33;9.20;99.90
3232;DHT22;1628;48.884;9.210;2022-11-18T01:01:01;9.20;99.90
3232;DHT22;1628;48.884;9.210;2022-11-18T01:03:28;9.20;99.90
3232;DHT22;1628;48.884;9.210;2022-11-18T01:05:55;9.20;99.90
3232;DHT22;1628;48.884;9.210;2022-11-18T01:08:22;9.20;99.90
3232;DHT22;1628;48.884;9.210;2022-11-18T01:10:49;9.10;99.90
3232;DHT22;1628;48.884;9.210;2022-11-18T01:13:18;9.20;99.90
3232;DHT22;1628;48.884;9.210;2022-11-18T01:15:46;9.10;99.90
3232;DHT22;1628;48.884;9.210;2022-11-18T01:18:15;9.10;99.90
3232;DHT22;1628;48.884;9.210;2022-11-18T01:20:42;9.10;99.90
3232;DHT22;1628;48.884;9.210;2022-11-18T01:23:09;9.10;99.90
3232;DHT22;1628;48.884;9.210;2022-11-18T01:25:37;9.10;99.90
3232;DHT22;1628;48.884;9.210;2022-11-18T01:28:04;9.10;99.90
3232;DHT22;1628;48.884;9.210;2022-11-18T01:30:33;9.10;99.90
3232;DHT22;1628;48.884;9.210;2022-11-18T01:33:00;9.10;99.90
3232;DHT22;1628;48.884;9.210;2022-11-18T01:35:28;9.10;99.90
3232;DHT22;1628;48.884;9.210;2022-11-18T01:37:55;9.10;99.90
3232;DHT22;1628;48.884;9.210;2022-11-18T01:40:22;9.10;99.90
3232;DHT22;1628;48.884;9.210;2022-11-18T01:42:48;9.10;99.90
3232;DHT22;1628;48.884;9.210;2022-11-18T01:45:24;9.20;99.90
3232;DHT22;1628;48.884;9.210;2022-11-18T01:47:56;9.20;99.90
3232;DHT22;1628;48.884;9.210;2022-11-18T01:50:25;9.10;99.90
3232;DHT22;1628;48.884;9.210;2022-11-18T01:52:59;9.10;99.90
3232;DHT22;1628;48.884;9.210;2022-11-18T01:55:32;9.20;99.90
3232;DHT22;1628;48.884;9.210;2022-11-18T01:58:10;9.20;99.90
3232;DHT22;1628;48.884;9.210;2022-11-18T02:00:38;9.20;99.90
3232;DHT22;1628;48.884;9.210;2022-11-18T02:03:06;9.20;99.90
3232;DHT22;1628;48.884;9.210;2022-11-18T02:05:34;9.10;99.90
3232;DHT22;1628;48.884;9.210;2022-11-18T02:08:05;9.10;99.90
3232;DHT22;1628;48.884;9.210;2022-11-18T02:10:33;9.10;99.90
3232;DHT22;1628;48.884;9.210;2022-11-18T02:12:59;9.10;99.90
3232;DHT22;1628;48.884;9.210;2022-11-18T02:15:36;9.10;99.90
3232;DHT22;1628;48.884;9.210;2022-11-18T02:18:16;9.10;99.90
3232;DHT22;1628;48.884;9.210;2022-11-18T02:20:45;9.10;99.90
3232;DHT22;1628;48.884;9.210;2022-11-18T02:23:44;9.10;99.90
3232;DHT22;1628;48.884;9.210;2022-11-18T02:26:49;9.10;99.90
3232;DHT22;1628;48.884;9.210;2022-11-18T02:29:24;9.10;99.90
3232;DHT22;1628;48.884;9.210;2022-11-18T02:31:56;9.10;99.90
3232;DHT22;1628;48.884;9.210;2022-11-18T02:34:32;9.10;99.90
3232;DHT22;1628;48.884;9.210;2022-11-18T02:37:04;9.10;99.90
3232;DHT22;1628;48.884;9.210;2022-11-18T02:39:35;9.10;99.90
3232;DHT22;1628;48.884;9.210;2022-11-18T02:42:06;9.10;99.90
3232;DHT22;1628;48.884;9.210;2022-11-18T02:44:39;9.20;99.90
3232;DHT22;1628;48.884;9.210;2022-11-18T02:47:09;9.20;99.90
3232;DHT22;1628;48.884;9.210;2022-11-18T02:49:39;9.20;99.90
3232;DHT22;1628;48.884;9.210;2022-11-18T02:52:08;9.20;99.90
3232;DHT22;1628;48.884;9.210;2022-11-18T02:54:39;9.30;99.90
3232;DHT22;1628;48.884;9.210;2022-11-18T02:57:07;9.30;99.90
3232;DHT22;1628;48.884;9.210;2022-11-18T02:59:35;9.30;99.90
3232;DHT22;1628;48.884;9.210;2022-11-18T03:02:03;9.30;99.90
3232;DHT22;1628;48.884;9.210;2022-11-18T03:04:30;9.30;99.90
3232;DHT22;1628;48.884;9.210;2022-11-18T03:07:03;9.40;99.90
3232;DHT22;1628;48.884;9.210;2022-11-18T03:09:37;9.40;99.90
3232;DHT22;1628;48.884;9.210;2022-11-18T03:12:10;9.40;99.90
3232;DHT22;1628;48.884;9.210;2022-11-18T03:14:46;9.40;99.90
3232;DHT22;1628;48.884;9.210;2022-11-18T03:17:19;9.40;99.90
3232;DHT22;1628;48.884;9.210;2022-11-18T03:19:57;9.40;99.90
3232;DHT22;1628;48.884;9.210;2022-11-18T03:22:29;9.40;99.90
3232;DHT22;1628;48.884;9.210;2022-11-18T03:25:03;9.40;99.90
3232;DHT22;1628;48.884;9.210;2022-11-18T03:27:33;9.30;99.90
3232;DHT22;1628;48.884;9.210;2022-11-18T03:30:06;9.40;99.90
3232;DHT22;1628;48.884;9.210;2022-11-18T03:32:38;9.40;99.90
3232;DHT22;1628;48.884;9.210;2022-11-18T03:35:10;9.40;99.90
3232;DHT22;1628;48.884;9.210;2022-11-18T03:37:40;9.40;99.90
3232;DHT22;1628;48.884;9.210;2022-11-18T03:40:11;9.40;99.90
3232;DHT22;1628;48.884;9.210;2022-11-18T03:42:42;9.40;99.90
3232;DHT22;1628;48.884;9.210;2022-11-18T03:45:14;9.40;99.90
3232;DHT22;1628;48.884;9.210;2022-11-18T03:47:44;9.40;99.90
3232;DHT22;1628;48.884;9.210;2022-11-18T03:50:16;9.30;99.90
3232;DHT22;1628;48.884;9.210;2022-11-18T03:52:46;9.30;99.90
3232;DHT22;1628;48.884;9.210;2022-11-18T03:55:16;9.30;99.90
3232;DHT22;1628;48.884;9.210;2022-11-18T03:57:48;9.30;99.90
3232;DHT22;1628;48.884;9.210;2022-11-18T04:00:17;9.30;99.90
3232;DHT22;1628;48.884;9.210;2022-11-18T04:02:46;9.20;99.90
3232;DHT22;1628;48.884;9.210;2022-11-18T04:05:14;9.20;99.90
3232;DHT22;1628;48.884;9.210;2022-11-18T04:07:44;9.20;99.90
3232;DHT22;1628;48.884;9.210;2022-11-18T04:10:16;9.20;99.90
3232;DHT22;1628;48.884;9.210;2022-11-18T04:12:46;9.20;99.90
3232;DHT22;1628;48.884;9.210;2022-11-18T04:15:14;9.20;99.90
3232;DHT22;1628;48.884;9.210;2022-11-18T04:17:43;9.20;99.90
3232;DHT22;1628;48.884;9.210;2022-11-18T04:20:13;9.20;99.90
3232;DHT22;1628;48.884;9.210;2022-11-18T04:22:41;9.10;99.90
3232;DHT22;1628;48.884;9.210;2022-11-18T04:25:08;9.20;99.90
3232;DHT22;1628;48.884;9.210;2022-11-18T04:27:35;9.20;99.90
3232;DHT22;1628;48.884;9.210;2022-11-18T04:30:01;9.20;99.90
3232;DHT22;1628;48.884;9.210;2022-11-18T04:32:28;9.20;99.90
3232;DHT22;1628;48.884;9.210;2022-11-18T04:34:56;9.10;99.90
3232;DHT22;1628;48.884;9.210;2022-11-18T04:37:23;9.10;99.90
3232;DHT22;1628;48.884;9.210;2022-11-18T04:39:50;9.10;99.90
3232;DHT22;1628;48.884;9.210;2022-11-18T04:42:17;9.00;99.90
3232;DHT22;1628;48.884;9.210;2022-11-18T04:44:43;8.90;99.90
3232;DHT22;1628;48.884;9.210;2022-11-18T04:47:10;8.90;99.90
3232;DHT22;1628;48.884;9.210;2022-11-18T04:49:37;8.80;99.90
3232;DHT22;1628;48.884;9.210;2022-11-18T04:52:05;8.80;99.90
3232;DHT22;1628;48.884;9.210;2022-11-18T04:54:32;8.70;99.90
3232;DHT22;1628;48.884;9.210;2022-11-18T04:56:59;8.70;99.90
3232;DHT22;1628;48.884;9.210;2022-11-18T04:59:27;8.70;99.90
3232;DHT22;1628;48.884;9.210;2022-11-18T05:01:55;8.70;99.90
3232;DHT22;1628;48.884;9.210;2022-11-18T05:04:23;8.70;99.90
3232;DHT22;1628;48.884;9.210;2022-11-18T05:06:50;8.70;99.90
3232;DHT22;1628;48.884;9.210;2022-11-18T05:09:19;8.70;99.90
3232;DHT22;1628;48.884;9.210;2022-11-18T05:11:45;8.70;99.90
3232;DHT22;1628;48.884;9.210;2022-11-18T05:14:30;8.60;99.90
3232;DHT22;1628;48.884;9.210;2022-11-18T05:16:59;8.60;99.90
3232;DHT22;1628;48.884;9.210;2022-11-18T05:19:26;8.60;99.90
3232;DHT22;1628;48.884;9.210;2022-11-18T05:21:53;8.60;99.90
3232;DHT22;1628;48.884;9.210;2022-11-18T05:24:22;8.60;99.90
3232;DHT22;1628;48.884;9.210;2022-11-18T05:26:49;8.50;99.90
3232;DHT22;1628;48.884;9.210;2022-11-18T05:29:16;8.50;99.90
3232;DHT22;1628;48.884;9.210;2022-11-18T05:31:43;8.50;99.90
3232;DHT22;1628;48.884;9.210;2022-11-18T05:34:10;8.50;99.90
3232;DHT22;1628;48.884;9.210;2022-11-18T05:36:37;8.40;99.90
3232;DHT22;1628;48.884;9.210;2022-11-18T05:39:04;8.40;99.90
3232;DHT22;1628;48.884;9.210;2022-11-18T05:41:32;8.40;99.90
3232;DHT22;1628;48.884;9.210;2022-11-18T05:44:16;8.40;99.90
3232;DHT22;1628;48.884;9.210;2022-11-18T05:46:43;8.30;99.90
3232;DHT22;1628;48.884;9.210;2022-11-18T05:49:09;8.40;99.90
3232;DHT22;1628;48.884;9.210;2022-11-18T05:51:36;8.40;99.90
3232;DHT22;1628;48.884;9.210;2022-11-18T05:54:05;8.40;99.90
3232;DHT22;1628;48.884;9.210;2022-11-18T05:56:35;8.30;99.90
3232;DHT22;1628;48.884;9.210;2022-11-18T05:59:03;8.30;99.90
3232;DHT22;1628;48.884;9.210;2022-11-18T06:01:35;8.40;99.90
3232;DHT22;1628;48.884;9.210;2022-11-18T06:04:06;8.40;99.90
3232;DHT22;1628;48.884;9.210;2022-11-18T06:06:34;8.40;99.90
3232;DHT22;1628;48.884;9.210;2022-11-18T06:09:03;8.40;99.90
3232;DHT22;1628;48.884;9.210;2022-11-18T06:11:31;8.40;99.90
3232;DHT22;1628;48.884;9.210;2022-11-18T06:14:05;8.40;99.90
3232;DHT22;1628;48.884;9.210;2022-11-18T06:16:35;8.40;99.90
3232;DHT22;1628;48.884;9.210;2022-11-18T06:19:03;8.40;99.90
3232;DHT22;1628;48.884;9.210;2022-11-18T06:21:30;8.40;99.90
3232;DHT22;1628;48.884;9.210;2022-11-18T06:23:56;8.40;99.90
3232;DHT22;1628;48.884;9.210;2022-11-18T06:26:24;8.40;99.90
3232;DHT22;1628;48.884;9.210;2022-11-18T06:28:51;8.40;99.90
3232;DHT22;1628;48.884;9.210;2022-11-18T06:31:19;8.40;99.90
3232;DHT22;1628;48.884;9.210;2022-11-18T06:33:46;8.30;99.90
3232;DHT22;1628;48.884;9.210;2022-11-18T06:36:12;8.30;99.90
3232;DHT22;1628;48.884;9.210;2022-11-18T06:38:39;8.30;99.90
3232;DHT22;1628;48.884;9.210;2022-11-18T06:41:06;8.30;99.90
3232;DHT22;1628;48.884;9.210;2022-11-18T06:43:33;8.30;99.90
3232;DHT22;1628;48.884;9.210;2022-11-18T06:46:07;8.30;99.90
3232;DHT22;1628;48.884;9.210;2022-11-18T06:48:53;8.30;99.90
3232;DHT22;1628;48.884;9.210;2022-11-18T06:51:20;8.40;99.90
3232;DHT22;1628;48.884;9.210;2022-11-18T06:53:48;8.40;99.90
3232;DHT22;1628;48.884;9.210;2022-11-18T06:56:16;8.40;99.90
3232;DHT22;1628;48.884;9.210;2022-11-18T06:58:43;8.50;99.90
3232;DHT22;1628;48.884;9.210;2022-11-18T07:01:11;8.50;99.90
3232;DHT22;1628;48.884;9.210;2022-11-18T07:03:39;8.50;99.90
3232;DHT22;1628;48.884;9.210;2022-11-18T07:06:08;8.50;99.90
3232;DHT22;1628;48.884;9.210;2022-11-18T07:08:35;8.60;99.90
3232;DHT22;1628;48.884;9.210;2022-11-18T07:11:02;8.60;99.90
3232;DHT22;1628;48.884;9.210;2022-11-18T07:13:29;8.60;99.90
3232;DHT22;1628;48.884;9.210;2022-11-18T07:16:01;8.60;99.90
3232;DHT22;1628;48.884;9.210;2022-11-18T07:18:29;8.70;99.90
3232;DHT22;1628;48.884;9.210;2022-11-18T07:20:55;8.70;99.90
3232;DHT22;1628;48.884;9.210;2022-11-18T07:23:23;8.70;99.90
3232;DHT22;1628;48.884;9.210;2022-11-18T07:25:53;8.80;99.90
3232;DHT22;1628;48.884;9.210;2022-11-18T07:28:20;8.80;99.90
3232;DHT22;1628;48.884;9.210;2022-11-18T07:30:46;8.80;99.90
3232;DHT22;1628;48.884;9.210;2022-11-18T07:33:13;8.80;99.90
3232;DHT22;1628;48.884;9.210;2022-11-18T07:35:40;8.90;99.90
3232;DHT22;1628;48.884;9.210;2022-11-18T07:38:06;8.80;99.90
3232;DHT22;1628;48.884;9.210;2022-11-18T07:40:34;8.90;99.90
3232;DHT22;1628;48.884;9.210;2022-11-18T07:43:01;8.90;99.90
3232;DHT22;1628;48.884;9.210;2022-11-18T07:45:28;8.90;99.90
3232;DHT22;1628;48.884;9.210;2022-11-18T07:47:54;8.90;99.90
3232;DHT22;1628;48.884;9.210;2022-11-18T07:50:21;8.90;99.90
3232;DHT22;1628;48.884;9.210;2022-11-18T07:52:48;8.90;99.90
3232;DHT22;1628;48.884;9.210;2022-11-18T07:55:14;8.90;99.90
3232;DHT22;1628;48.884;9.210;2022-11-18T07:57:42;8.90;99.90
3232;DHT22;1628;48.884;9.210;2022-11-18T08:00:10;8.90;99.90
3232;DHT22;1628;48.884;9.210;2022-11-18T08:02:36;8.90;99.90
3232;DHT22;1628;48.884;9.210;2022-11-18T08:05:04;8.90;99.90
3232;DHT22;1628;48.884;9.210;2022-11-18T08:07:31;8.90;99.90
3232;DHT22;1628;48.884;9.210;2022-11-18T08:09:57;8.90;99.90
3232;DHT22;1628;48.884;9.210;2022-11-18T08:12:24;8.90;99.90
3232;DHT22;1628;48.884;9.210;2022-11-18T08:14:52;8.90;99.90
3232;DHT22;1628;48.884;9.210;2022-11-18T08:17:18;8.90;99.90
3232;DHT22;1628;48.884;9.210;2022-11-18T08:19:45;9.00;99.90
3232;DHT22;1628;48.884;9.210;2022-11-18T08:22:12;9.10;99.90
3232;DHT22;1628;48.884;9.210;2022-11-18T08:24:41;9.10;99.90
3232;DHT22;1628;48.884;9.210;2022-11-18T08:27:07;9.10;99.90
3232;DHT22;1628;48.884;9.210;2022-11-18T08:29:34;9.20;99.90
3232;DHT22;1628;48.884;9.210;2022-11-18T08:32:02;9.20;99.90
3232;DHT22;1628;48.884;9.210;2022-11-18T08:34:30;9.20;99.90
3232;DHT22;1628;48.884;9.210;2022-11-18T08:36:57;9.30;99.90
3232;DHT22;1628;48.884;9.210;2022-11-18T08:39:24;9.20;99.90
3232;DHT22;1628;48.884;9.210;2022-11-18T08:41:50;9.20;99.90
3232;DHT22;1628;48.884;9.210;2022-11-18T08:44:18;9.20;99.90
3232;DHT22;1628;48.884;9.210;2022-11-18T08:46:45;9.20;99.90
3232;DHT22;1628;48.884;9.210;2022-11-18T08:49:13;9.30;99.90
3232;DHT22;1628;48.884;9.210;2022-11-18T08:51:40;9.40;99.90
3232;DHT22;1628;48.884;9.210;2022-11-18T08:54:06;9.40;99.90
3232;DHT22;1628;48.884;9.210;2022-11-18T08:56:33;9.40;99.90
3232;DHT22;1628;48.884;9.210;2022-11-18T08:59:00;9.40;99.90
3232;DHT22;1628;48.884;9.210;2022-11-18T09:01:27;9.50;99.90
3232;DHT22;1628;48.884;9.210;2022-11-18T09:03:53;9.50;99.90
3232;DHT22;1628;48.884;9.210;2022-11-18T09:06:23;9.50;99.90
3232;DHT22;1628;48.884;9.210;2022-11-18T09:08:51;9.60;99.90
3232;DHT22;1628;48.884;9.210;2022-11-18T09:11:19;9.60;99.90
3232;DHT22;1628;48.884;9.210;2022-11-18T09:13:46;9.60;99.90
3232;DHT22;1628;48.884;9.210;2022-11-18T09:16:13;9.70;99.90
3232;DHT22;1628;48.884;9.210;2022-11-18T09:18:39;9.60;99.90
3232;DHT22;1628;48.884;9.210;2022-11-18T09:21:08;9.70;99.90
3232;DHT22;1628;48.884;9.210;2022-11-18T09:23:37;9.70;99.90
3232;DHT22;1628;48.884;9.210;2022-11-18T09:26:06;9.70;99.90
3232;DHT22;1628;48.884;9.210;2022-11-18T09:28:33;9.70;99.90
3232;DHT22;1628;48.884;9.210;2022-11-18T09:31:02;9.80;99.90
3232;DHT22;1628;48.884;9.210;2022-11-18T09:33:30;9.80;99.90
3232;DHT22;1628;48.884;9.210;2022-11-18T09:35:56;9.80;99.90
3232;DHT22;1628;48.884;9.210;2022-11-18T09:38:23;9.70;99.90
3232;DHT22;1628;48.884;9.210;2022-11-18T09:40:59;9.80;99.90
3232;DHT22;1628;48.884;9.210;2022-11-18T09:43:36;9.80;99.90
3232;DHT22;1628;48.884;9.210;2022-11-18T09:46:17;9.80;99.90
3232;DHT22;1628;48.884;9.210;2022-11-18T09:48:49;9.80;99.90
3232;DHT22;1628;48.884;9.210;2022-11-18T09:51:38;9.90;99.90
3232;DHT22;1628;48.884;9.210;2022-11-18T09:54:09;9.90;99.90
3232;DHT22;1628;48.884;9.210;2022-11-18T09:56:39;9.90;99.90
3232;DHT22;1628;48.884;9.210;2022-11-18T09:59:06;10.00;99.90
3232;DHT22;1628;48.884;9.210;2022-11-18T10:01:35;9.90;99.90
3232;DHT22;1628;48.884;9.210;2022-11-18T10:04:02;9.90;99.90
3232;DHT22;1628;48.884;9.210;2022-11-18T10:06:31;9.90;99.90
3232;DHT22;1628;48.884;9.210;2022-11-18T10:09:07;9.90;99.90
3232;DHT22;1628;48.884;9.210;2022-11-18T10:11:41;9.90;99.90
3232;DHT22;1628;48.884;9.210;2022-11-18T10:14:18;9.90;99.90
3232;DHT22;1628;48.884;9.210;2022-11-18T10:16:53;9.80;99.90
3232;DHT22;1628;48.884;9.210;2022-11-18T10:19:27;9.80;99.90
3232;DHT22;1628;48.884;9.210;2022-11-18T10:22:04;9.80;99.90
3232;DHT22;1628;48.884;9.210;2022-11-18T10:24:37;9.80;99.90
3232;DHT22;1628;48.884;9.210;2022-11-18T10:27:10;9.90;99.90
3232;DHT22;1628;48.884;9.210;2022-11-18T10:29:37;9.90;99.90
3232;DHT22;1628;48.884;9.210;2022-11-18T10:32:05;10.00;99.90
3232;DHT22;1628;48.884;9.210;2022-11-18T10:34:34;10.10;99.90
3232;DHT22;1628;48.884;9.210;2022-11-18T10:37:03;10.30;99.90
3232;DHT22;1628;48.884;9.210;2022-11-18T10:39:30;10.30;99.90
3232;DHT22;1628;48.884;9.210;2022-11-18T10:42:00;10.40;99.90
3232;DHT22;1628;48.884;9.210;2022-11-18T10:44:34;10.40;99.90
3232;DHT22;1628;48.884;9.210;2022-11-18T10:47:29;10.40;99.90
3232;DHT22;1628;48.884;9.210;2022-11-18T10:49:58;10.40;99.90
3232;DHT22;1628;48.884;9.210;2022-11-18T10:52:26;10.40;99.90
3232;DHT22;1628;48.884;9.210;2022-11-18T10:55:20;10.50;99.90
3232;DHT22;1628;48.884;9.210;2022-11-18T10:57:49;10.60;99.90
3232;DHT22;1628;48.884;9.210;2022-11-18T11:00:38;10.70;99.90
3232;DHT22;1628;48.884;9.210;2022-11-18T11:03:33;10.90;99.90
3232;DHT22;1628;48.884;9.210;2022-11-18T11:06:21;10.80;99.90
3232;DHT22;1628;48.884;9.210;2022-11-18T11:08:49;10.80;99.90
3232;DHT22;1628;48.884;9.210;2022-11-18T11:11:22;10.70;99.90
3232;DHT22;1628;48.884;9.210;2022-11-18T11:14:12;10.60;99.90
3232;DHT22;1628;48.884;9.210;2022-11-18T11:16:47;10.60;99.90
3232;DHT22;1628;48.884;9.210;2022-11-18T11:19:18;10.60;99.90
3232;DHT22;1628;48.884;9.210;2022-11-18T11:21:47;10.50;99.90
3232;DHT22;1628;48.884;9.210;2022-11-18T11:24:13;10.50;99.90
3232;DHT22;1628;48.884;9.210;2022-11-18T11:26:48;10.50;99.90
3232;DHT22;1628;48.884;9.210;2022-11-18T11:29:49;10.50;99.90
3232;DHT22;1628;48.884;9.210;2022-11-18T11:32:29;10.50;99.90
3232;DHT22;1628;48.884;9.210;2022-11-18T11:35:03;10.50;99.90
3232;DHT22;1628;48.884;9.210;2022-11-18T11:37:44;10.50;99.90
3232;DHT22;1628;48.884;9.210;2022-11-18T11:40:19;10.60;99.90
3232;DHT22;1628;48.884;9.210;2022-11-18T11:42:57;10.70;99.90
3232;DHT22;1628;48.884;9.210;2022-11-18T11:45:30;10.90;99.90
3232;DHT22;1628;48.884;9.210;2022-11-18T11:48:18;11.00;99.90
3232;DHT22;1628;48.884;9.210;2022-11-18T11:50:51;11.20;99.90
3232;DHT22;1628;48.884;9.210;2022-11-18T11:53:53;11.30;99.90
3232;DHT22;1628;48.884;9.210;2022-11-18T11:56:28;11.40;99.90
3232;DHT22;1628;48.884;9.210;2022-11-18T12:01:59;11.30;99.90
3232;DHT22;1628;48.884;9.210;2022-11-18T12:04:38;11.20;99.90
3232;DHT22;1628;48.884;9.210;2022-11-18T12:07:14;11.10;99.90
3232;DHT22;1628;48.884;9.210;2022-11-18T12:09:55;11.20;99.90
3232;DHT22;1628;48.884;9.210;2022-11-18T12:12:30;11.20;99.90
3232;DHT22;1628;48.884;9.210;2022-11-18T12:15:15;11.20;99.90
3232;DHT22;1628;48.884;9.210;2022-11-18T12:17:51;11.20;99.90
3232;DHT22;1628;48.884;9.210;2022-11-18T12:20:37;11.20;99.90
3232;DHT22;1628;48.884;9.210;2022-11-18T12:23:08;11.20;99.90
3232;DHT22;1628;48.884;9.210;2022-11-18T12:25:54;11.40;99.90
3232;DHT22;1628;48.884;9.210;2022-11-18T12:28:32;11.50;99.90
3232;DHT22;1628;48.884;9.210;2022-11-18T12:31:34;11.50;99.90
3232;DHT22;1628;48.884;9.210;2022-11-18T12:34:04;11.50;99.90
3232;DHT22;1628;48.884;9.210;2022-11-18T12:36:33;11.60;99.90
3232;DHT22;1628;48.884;9.210;2022-11-18T12:42:01;11.60;99.90
3232;DHT22;1628;48.884;9.210;2022-11-18T12:44:47;11.60;99.90
3232;DHT22;1628;48.884;9.210;2022-11-18T12:47:14;11.60;99.90
3232;DHT22;1628;48.884;9.210;2022-11-18T12:50:09;11.60;99.90
3232;DHT22;1628;48.884;9.210;2022-11-18T12:52:53;11.50;99.90
3232;DHT22;1628;48.884;9.210;2022-11-18T12:55:32;11.40;99.90
3232;DHT22;1628;48.884;9.210;2022-11-18T12:57:59;11.30;99.90
3232;DHT22;1628;48.884;9.210;2022-11-18T13:00:31;11.30;99.90
3232;DHT22;1628;48.884;9.210;2022-11-18T13:03:21;11.20;99.90
3232;DHT22;1628;48.884;9.210;2022-11-18T13:05:49;11.20;99.90
3232;DHT22;1628;48.884;9.210;2022-11-18T13:08:18;11.10;99.90
3232;DHT22;1628;48.884;9.210;2022-11-18T13:10:47;11.00;99.90
3232;DHT22;1628;48.884;9.210;2022-11-18T13:13:26;10.90;99.90
3232;DHT22;1628;48.884;9.210;2022-11-18T13:15:55;10.80;99.90
3232;DHT22;1628;48.884;9.210;2022-11-18T13:18:52;10.70;99.90
3232;DHT22;1628;48.884;9.210;2022-11-18T13:21:21;10.70;99.90
3232;DHT22;1628;48.884;9.210;2022-11-18T13:24:10;10.60;99.90
3232;DHT22;1628;48.884;9.210;2022-11-18T13:26:39;10.60;99.90
3232;DHT22;1628;48.884;9.210;2022-11-18T13:29:22;10.60;99.90
3232;DHT22;1628;48.884;9.210;2022-11-18T13:32:00;10.70;99.90
3232;DHT22;1628;48.884;9.210;2022-11-18T13:34:30;10.70;99.90
3232;DHT22;1628;48.884;9.210;2022-11-18T13:36:58;10.70;99.90
3232;DHT22;1628;48.884;9.210;2022-11-18T13:39:28;10.80;99.90
3232;DHT22;1628;48.884;9.210;2022-11-18T13:42:00;10.90;99.90
3232;DHT22;1628;48.884;9.210;2022-11-18T13:44:28;11.10;99.90
3232;DHT22;1628;48.884;9.210;2022-11-18T13:46:59;11.20;99.90
3232;DHT22;1628;48.884;9.210;2022-11-18T13:49:43;11.40;99.90
3232;DHT22;1628;48.884;9.210;2022-11-18T13:52:13;11.60;99.90
3232;DHT22;1628;48.884;9.210;2022-11-18T13:54:43;11.70;99.90
3232;DHT22;1628;48.884;9.210;2022-11-18T13:57:16;11.80;99.90
3232;DHT22;1628;48.884;9.210;2022-11-18T13:59:45;11.90;99.90
3232;DHT22;1628;48.884;9.210;2022-11-18T14:02:13;12.00;99.90
3232;DHT22;1628;48.884;9.210;2022-11-18T14:04:48;12.00;99.90
3232;DHT22;1628;48.884;9.210;2022-11-18T14:07:23;12.00;99.90
3232;DHT22;1628;48.884;9.210;2022-11-18T14:09:53;11.90;99.90
3232;DHT22;1628;48.884;9.210;2022-11-18T14:12:23;11.90;99.90
3232;DHT22;1628;48.884;9.210;2022-11-18T14:14:50;11.80;99.90
3232;DHT22;1628;48.884;9.210;2022-11-18T14:17:18;11.80;99.90
3232;DHT22;1628;48.884;9.210;2022-11-18T14:19:46;11.70;99.90
3232;DHT22;1628;48.884;9.210;2022-11-18T14:22:15;11.80;99.90
3232;DHT22;1628;48.884;9.210;2022-11-18T14:24:43;11.90;99.90
3232;DHT22;1628;48.884;9.210;2022-11-18T14:27:44;11.80;99.90
3232;DHT22;1628;48.884;9.210;2022-11-18T14:30:30;11.80;99.90
3232;DHT22;1628;48.884;9.210;2022-11-18T14:33:15;11.70;99.90
3232;DHT22;1628;48.884;9.210;2022-11-18T14:35:43;11.70;99.90
3232;DHT22;1628;48.884;9.210;2022-11-18T14:38:15;11.60;99.90
3232;DHT22;1628;48.884;9.210;2022-11-18T14:40:42;11.50;99.90
3232;DHT22;1628;48.884;9.210;2022-11-18T14:43:11;11.50;99.90
3232;DHT22;1628;48.884;9.210;2022-11-18T14:45:39;11.50;99.90
3232;DHT22;1628;48.884;9.210;2022-11-18T14:48:08;11.50;99.90
3232;DHT22;1628;48.884;9.210;2022-11-18T14:50:36;11.50;99.90
3232;DHT22;1628;48.884;9.210;2022-11-18T14:53:03;11.50;99.90
3232;DHT22;1628;48.884;9.210;2022-11-18T14:55:30;11.40;99.90
3232;DHT22;1628;48.884;9.210;2022-11-18T14:57:57;11.30;99.90
3232;DHT22;1628;48.884;9.210;2022-11-18T15:00:28;11.30;99.90
3232;DHT22;1628;48.884;9.210;2022-11-18T15:02:55;11.20;99.90
3232;DHT22;1628;48.884;9.210;2022-11-18T15:05:21;11.30;99.90
3232;DHT22;1628;48.884;9.210;2022-11-18T15:07:48;11.40;99.90
3232;DHT22;1628;48.884;9.210;2022-11-18T15:10:16;11.50;99.90
3232;DHT22;1628;48.884;9.210;2022-11-18T15:12:42;11.60;99.90
3232;DHT22;1628;48.884;9.210;2022-11-18T15:15:09;11.70;99.90
3232;DHT22;1628;48.884;9.210;2022-11-18T15:17:37;11.70;99.90
3232;DHT22;1628;48.884;9.210;2022-11-18T15:20:05;11.70;99.90
3232;DHT22;1628;48.884;9.210;2022-11-18T15:22:32;11.70;99.90
3232;DHT22;1628;48.884;9.210;2022-11-18T15:24:59;11.70;99.90
3232;DHT22;1628;48.884;9.210;2022-11-18T15:27:26;11.70;99.90
3232;DHT22;1628;48.884;9.210;2022-11-18T15:29:52;11.60;99.90
3232;DHT22;1628;48.884;9.210;2022-11-18T15:32:19;11.60;99.90
3232;DHT22;1628;48.884;9.210;2022-11-18T15:34:47;11.50;99.90
3232;DHT22;1628;48.884;9.210;2022-11-18T15:37:14;11.30;99.90
3232;DHT22;1628;48.884;9.210;2022-11-18T15:39:41;11.20;99.90
3232;DHT22;1628;48.884;9.210;2022-11-18T15:42:08;11.10;99.90
3232;DHT22;1628;48.884;9.210;2022-11-18T15:44:35;10.90;99.90
3232;DHT22;1628;48.884;9.210;2022-11-18T15:47:02;10.80;99.90
3232;DHT22;1628;48.884;9.210;2022-11-18T15:49:28;10.70;99.90
3232;DHT22;1628;48.884;9.210;2022-11-18T15:51:56;10.70;99.90
3232;DHT22;1628;48.884;9.210;2022-11-18T15:54:24;10.70;99.90
3232;DHT22;1628;48.884;9.210;2022-11-18T15:56:50;10.50;99.90
3232;DHT22;1628;48.884;9.210;2022-11-18T15:59:17;10.50;99.90
3232;DHT22;1628;48.884;9.210;2022-11-18T16:01:45;10.50;99.90
3232;DHT22;1628;48.884;9.210;2022-11-18T16:04:14;10.50;99.90
3232;DHT22;1628;48.884;9.210;2022-11-18T16:06:41;10.40;99.90
3232;DHT22;1628;48.884;9.210;2022-11-18T16:09:10;10.40;99.90
3232;DHT22;1628;48.884;9.210;2022-11-18T16:11:37;10.40;99.90
3232;DHT22;1628;48.884;9.210;2022-11-18T16:14:22;10.40;99.90
3232;DHT22;1628;48.884;9.210;2022-11-18T16:16:50;10.40;99.90
3232;DHT22;1628;48.884;9.210;2022-11-18T16:19:20;10.40;99.90
3232;DHT22;1628;48.884;9.210;2022-11-18T16:21:49;10.40;99.90
3232;DHT22;1628;48.884;9.210;2022-11-18T16:24:19;10.30;99.90
3232;DHT22;1628;48.884;9.210;2022-11-18T16:26:46;10.30;99.90
3232;DHT22;1628;48.884;9.210;2022-11-18T16:29:13;10.30;99.90
3232;DHT22;1628;48.884;9.210;2022-11-18T16:31:41;10.30;99.90
3232;DHT22;1628;48.884;9.210;2022-11-18T16:34:10;10.30;99.90
3232;DHT22;1628;48.884;9.210;2022-11-18T16:36:38;10.30;99.90
3232;DHT22;1628;48.884;9.210;2022-11-18T16:39:07;10.30;99.90
3232;DHT22;1628;48.884;9.210;2022-11-18T16:41:36;10.30;99.90